sensor_id;sensor_type;location;lat;lon;timestamp;P1;durP1;ratioP1;P2;durP2;ratioP2
15931;SDS011;8065;49.520;11.284;2022-11-20T00:02:18;23.50;;;14.77;;
15931;SDS011;8065;49.520;11.284;2022-11-20T00:04:45;23.17;;;14.50;;
15931;SDS011;8065;49.520;11.284;2022-11-20T00:07:12;25.43;;;15.17;;
15931;SDS011;8065;49.520;11.284;2022-11-20T00:09:39;25.73;;;16.20;;
15931;SDS011;8065;49.520;11.284;2022-11-20T00:12:05;27.63;;;17.13;;
15931;SDS011;8065;49.520;11.284;2022-11-20T00:14:32;25.73;;;16.03;;
15931;SDS011;8065;49.520;11.284;2022-11-20T00:16:58;24.60;;;15.53;;
15931;SDS011;8065;49.520;11.284;2022-11-20T00:19:25;22.37;;;15.17;;
15931;SDS011;8065;49.520;11.284;2022-11-20T00:21:51;26.27;;;16.33;;
15931;SDS011;8065;49.520;11.284;2022-11-20T00:24:21;24.23;;;15.30;;
15931;SDS011;8065;49.520;11.284;2022-11-20T00:26:48;25.23;;;15.77;;
15931;SDS011;8065;49.520;11.284;2022-11-20T00:29:14;26.20;;;16.90;;
15931;SDS011;8065;49.520;11.284;2022-11-20T00:31:40;24.70;;;15.70;;
15931;SDS011;8065;49.520;11.284;2022-11-20T00:34:07;27.07;;;16.97;;
15931;SDS011;8065;49.520;11.284;2022-11-20T00:36:35;25.57;;;16.30;;
15931;SDS011;8065;49.520;11.284;2022-11-20T00:39:01;25.77;;;16.57;;
15931;SDS011;8065;49.520;11.284;2022-11-20T00:41:29;26.40;;;16.50;;
15931;SDS011;8065;49.520;11.284;2022-11-20T00:43:56;26.20;;;16.80;;
15931;SDS011;8065;49.520;11.284;2022-11-20T00:46:24;26.23;;;16.30;;
15931;SDS011;8065;49.520;11.284;2022-11-20T00:48:51;25.60;;;16.80;;
15931;SDS011;8065;49.520;11.284;2022-11-20T00:51:19;26.47;;;16.77;;
15931;SDS011;8065;49.520;11.284;2022-11-20T00:53:47;27.13;;;16.97;;
15931;SDS011;8065;49.520;11.284;2022-11-20T00:56:15;27.63;;;17.13;;
15931;SDS011;8065;49.520;11.284;2022-11-20T00:58:45;25.50;;;16.53;;
15931;SDS011;8065;49.520;11.284;2022-11-20T01:01:13;27.00;;;16.33;;
15931;SDS011;8065;49.520;11.284;2022-11-20T01:03:41;24.63;;;16.03;;
15931;SDS011;8065;49.520;11.284;2022-11-20T01:06:10;27.67;;;17.53;;
15931;SDS011;8065;49.520;11.284;2022-11-20T01:08:39;26.47;;;16.93;;
15931;SDS011;8065;49.520;11.284;2022-11-20T01:11:06;27.03;;;16.63;;
15931;SDS011;8065;49.520;11.284;2022-11-20T01:13:34;26.57;;;17.17;;
15931;SDS011;8065;49.520;11.284;2022-11-20T01:16:06;27.60;;;17.67;;
15931;SDS011;8065;49.520;11.284;2022-11-20T01:18:33;24.33;;;15.77;;
15931;SDS011;8065;49.520;11.284;2022-11-20T01:21:01;26.87;;;15.80;;
15931;SDS011;8065;49.520;11.284;2022-11-20T01:23:32;24.57;;;16.60;;
15931;SDS011;8065;49.520;11.284;2022-11-20T01:26:00;23.93;;;15.60;;
15931;SDS011;8065;49.520;11.284;2022-11-20T01:28:27;26.10;;;16.27;;
15931;SDS011;8065;49.520;11.284;2022-11-20T01:30:54;27.87;;;16.50;;
15931;SDS011;8065;49.520;11.284;2022-11-20T01:33:22;25.70;;;16.83;;
15931;SDS011;8065;49.520;11.284;2022-11-20T01:35:49;26.57;;;16.97;;
15931;SDS011;8065;49.520;11.284;2022-11-20T01:38:15;30.10;;;18.40;;
15931;SDS011;8065;49.520;11.284;2022-11-20T01:40:42;27.60;;;16.97;;
15931;SDS011;8065;49.520;11.284;2022-11-20T01:43:11;28.90;;;17.30;;
15931;SDS011;8065;49.520;11.284;2022-11-20T01:46:12;26.20;;;16.23;;
15931;SDS011;8065;49.520;11.284;2022-11-20T01:48:44;28.63;;;17.33;;
15931;SDS011;8065;49.520;11.284;2022-11-20T01:51:21;30.10;;;17.47;;
15931;SDS011;8065;49.520;11.284;2022-11-20T01:53:52;25.93;;;16.33;;
15931;SDS011;8065;49.520;11.284;2022-11-20T01:56:21;27.80;;;17.33;;
15931;SDS011;8065;49.520;11.284;2022-11-20T01:58:49;29.70;;;17.77;;
15931;SDS011;8065;49.520;11.284;2022-11-20T02:01:20;29.37;;;17.43;;
15931;SDS011;8065;49.520;11.284;2022-11-20T02:03:48;29.37;;;17.47;;
15931;SDS011;8065;49.520;11.284;2022-11-20T02:06:16;28.70;;;18.47;;
15931;SDS011;8065;49.520;11.284;2022-11-20T02:08:48;32.40;;;19.43;;
15931;SDS011;8065;49.520;11.284;2022-11-20T02:11:15;30.63;;;17.80;;
15931;SDS011;8065;49.520;11.284;2022-11-20T02:13:41;25.50;;;16.57;;
15931;SDS011;8065;49.520;11.284;2022-11-20T02:16:17;27.07;;;16.83;;
15931;SDS011;8065;49.520;11.284;2022-11-20T02:18:47;28.83;;;17.30;;
15931;SDS011;8065;49.520;11.284;2022-11-20T02:21:21;26.83;;;16.90;;
15931;SDS011;8065;49.520;11.284;2022-11-20T02:24:01;29.07;;;17.07;;
15931;SDS011;8065;49.520;11.284;2022-11-20T02:26:31;30.27;;;18.90;;
15931;SDS011;8065;49.520;11.284;2022-11-20T02:29:01;32.43;;;20.03;;
15931;SDS011;8065;49.520;11.284;2022-11-20T02:31:28;30.80;;;19.20;;
15931;SDS011;8065;49.520;11.284;2022-11-20T02:33:59;29.13;;;18.63;;
15931;SDS011;8065;49.520;11.284;2022-11-20T02:36:26;27.63;;;17.33;;
15931;SDS011;8065;49.520;11.284;2022-11-20T02:38:54;28.83;;;18.20;;
15931;SDS011;8065;49.520;11.284;2022-11-20T02:41:22;28.27;;;16.93;;
15931;SDS011;8065;49.520;11.284;2022-11-20T02:43:56;26.33;;;16.93;;
15931;SDS011;8065;49.520;11.284;2022-11-20T02:46:23;29.40;;;17.43;;
15931;SDS011;8065;49.520;11.284;2022-11-20T02:48:49;28.67;;;16.23;;
15931;SDS011;8065;49.520;11.284;2022-11-20T02:51:16;28.23;;;17.40;;
15931;SDS011;8065;49.520;11.284;2022-11-20T02:53:42;27.73;;;17.77;;
15931;SDS011;8065;49.520;11.284;2022-11-20T02:56:08;27.50;;;16.20;;
15931;SDS011;8065;49.520;11.284;2022-11-20T02:58:36;26.33;;;17.03;;
15931;SDS011;8065;49.520;11.284;2022-11-20T03:01:03;28.97;;;17.97;;
15931;SDS011;8065;49.520;11.284;2022-11-20T03:03:30;25.10;;;16.37;;
15931;SDS011;8065;49.520;11.284;2022-11-20T03:05:58;27.53;;;17.10;;
15931;SDS011;8065;49.520;11.284;2022-11-20T03:08:24;26.80;;;17.33;;
15931;SDS011;8065;49.520;11.284;2022-11-20T03:10:51;28.00;;;17.27;;
15931;SDS011;8065;49.520;11.284;2022-11-20T03:13:18;29.03;;;18.43;;
15931;SDS011;8065;49.520;11.284;2022-11-20T03:15:46;25.57;;;16.27;;
15931;SDS011;8065;49.520;11.284;2022-11-20T03:18:12;26.97;;;17.17;;
15931;SDS011;8065;49.520;11.284;2022-11-20T03:20:39;26.80;;;17.07;;
15931;SDS011;8065;49.520;11.284;2022-11-20T03:23:06;27.07;;;17.23;;
15931;SDS011;8065;49.520;11.284;2022-11-20T03:25:32;25.57;;;16.10;;
15931;SDS011;8065;49.520;11.284;2022-11-20T03:27:59;29.30;;;17.83;;
15931;SDS011;8065;49.520;11.284;2022-11-20T03:30:25;28.13;;;18.03;;
15931;SDS011;8065;49.520;11.284;2022-11-20T03:32:53;27.23;;;17.40;;
15931;SDS011;8065;49.520;11.284;2022-11-20T03:35:20;28.13;;;17.50;;
15931;SDS011;8065;49.520;11.284;2022-11-20T03:37:47;26.97;;;17.23;;
15931;SDS011;8065;49.520;11.284;2022-11-20T03:40:13;26.77;;;16.30;;
15931;SDS011;8065;49.520;11.284;2022-11-20T03:42:40;25.50;;;16.43;;
15931;SDS011;8065;49.520;11.284;2022-11-20T03:45:12;26.47;;;17.07;;
15931;SDS011;8065;49.520;11.284;2022-11-20T03:47:39;26.70;;;17.40;;
15931;SDS011;8065;49.520;11.284;2022-11-20T03:50:08;27.63;;;17.00;;
15931;SDS011;8065;49.520;11.284;2022-11-20T03:52:35;25.03;;;15.77;;
15931;SDS011;8065;49.520;11.284;2022-11-20T03:55:02;28.07;;;17.07;;
15931;SDS011;8065;49.520;11.284;2022-11-20T03:57:29;29.27;;;18.27;;
15931;SDS011;8065;49.520;11.284;2022-11-20T03:59:55;28.50;;;17.60;;
15931;SDS011;8065;49.520;11.284;2022-11-20T04:02:22;28.87;;;17.30;;
15931;SDS011;8065;49.520;11.284;2022-11-20T04:04:48;27.03;;;17.07;;
15931;SDS011;8065;49.520;11.284;2022-11-20T04:07:16;28.63;;;18.20;;
15931;SDS011;8065;49.520;11.284;2022-11-20T04:09:42;28.80;;;17.50;;
15931;SDS011;8065;49.520;11.284;2022-11-20T04:12:09;28.97;;;18.03;;
15931;SDS011;8065;49.520;11.284;2022-11-20T04:14:35;30.17;;;17.97;;
15931;SDS011;8065;49.520;11.284;2022-11-20T04:17:03;29.77;;;17.13;;
15931;SDS011;8065;49.520;11.284;2022-11-20T04:19:29;29.40;;;18.70;;
15931;SDS011;8065;49.520;11.284;2022-11-20T04:21:56;30.13;;;17.67;;
15931;SDS011;8065;49.520;11.284;2022-11-20T04:24:23;29.27;;;18.27;;
15931;SDS011;8065;49.520;11.284;2022-11-20T04:26:50;29.77;;;19.00;;
15931;SDS011;8065;49.520;11.284;2022-11-20T04:29:16;29.67;;;18.17;;
15931;SDS011;8065;49.520;11.284;2022-11-20T04:31:43;30.40;;;18.30;;
15931;SDS011;8065;49.520;11.284;2022-11-20T04:34:10;30.03;;;18.07;;
15931;SDS011;8065;49.520;11.284;2022-11-20T04:36:37;31.00;;;18.30;;
15931;SDS011;8065;49.520;11.284;2022-11-20T04:39:04;31.47;;;18.40;;
15931;SDS011;8065;49.520;11.284;2022-11-20T04:41:34;29.57;;;18.77;;
15931;SDS011;8065;49.520;11.284;2022-11-20T04:44:02;28.73;;;17.70;;
15931;SDS011;8065;49.520;11.284;2022-11-20T04:46:31;30.53;;;18.10;;
15931;SDS011;8065;49.520;11.284;2022-11-20T04:48:58;33.67;;;19.47;;
15931;SDS011;8065;49.520;11.284;2022-11-20T04:51:25;31.33;;;18.67;;
15931;SDS011;8065;49.520;11.284;2022-11-20T04:53:52;31.13;;;19.57;;
15931;SDS011;8065;49.520;11.284;2022-11-20T04:56:19;32.07;;;18.87;;
15931;SDS011;8065;49.520;11.284;2022-11-20T04:58:47;28.93;;;17.97;;
15931;SDS011;8065;49.520;11.284;2022-11-20T05:01:14;32.47;;;19.90;;
15931;SDS011;8065;49.520;11.284;2022-11-20T05:03:42;32.13;;;19.13;;
15931;SDS011;8065;49.520;11.284;2022-11-20T05:06:10;31.87;;;18.97;;
15931;SDS011;8065;49.520;11.284;2022-11-20T05:08:37;33.13;;;19.43;;
15931;SDS011;8065;49.520;11.284;2022-11-20T05:11:05;31.23;;;19.23;;
15931;SDS011;8065;49.520;11.284;2022-11-20T05:13:33;32.20;;;19.47;;
15931;SDS011;8065;49.520;11.284;2022-11-20T05:16:05;30.10;;;18.47;;
15931;SDS011;8065;49.520;11.284;2022-11-20T05:18:33;33.63;;;18.93;;
15931;SDS011;8065;49.520;11.284;2022-11-20T05:21:00;34.30;;;19.60;;
15931;SDS011;8065;49.520;11.284;2022-11-20T05:23:27;29.87;;;19.00;;
15931;SDS011;8065;49.520;11.284;2022-11-20T05:25:55;32.07;;;18.83;;
15931;SDS011;8065;49.520;11.284;2022-11-20T05:28:23;32.67;;;19.43;;
15931;SDS011;8065;49.520;11.284;2022-11-20T05:30:50;32.90;;;19.53;;
15931;SDS011;8065;49.520;11.284;2022-11-20T05:33:18;29.90;;;18.43;;
15931;SDS011;8065;49.520;11.284;2022-11-20T05:35:45;31.50;;;19.03;;
15931;SDS011;8065;49.520;11.284;2022-11-20T05:38:11;30.70;;;18.90;;
15931;SDS011;8065;49.520;11.284;2022-11-20T05:40:38;29.17;;;17.97;;
15931;SDS011;8065;49.520;11.284;2022-11-20T05:43:04;27.73;;;17.40;;
15931;SDS011;8065;49.520;11.284;2022-11-20T05:45:30;30.73;;;18.60;;
15931;SDS011;8065;49.520;11.284;2022-11-20T05:47:57;30.63;;;17.97;;
15931;SDS011;8065;49.520;11.284;2022-11-20T05:50:26;29.47;;;18.27;;
15931;SDS011;8065;49.520;11.284;2022-11-20T05:52:53;29.20;;;17.97;;
15931;SDS011;8065;49.520;11.284;2022-11-20T05:55:19;28.90;;;17.77;;
15931;SDS011;8065;49.520;11.284;2022-11-20T05:57:46;32.27;;;18.80;;
15931;SDS011;8065;49.520;11.284;2022-11-20T06:00:13;31.83;;;17.80;;
15931;SDS011;8065;49.520;11.284;2022-11-20T06:02:40;37.67;;;19.97;;
15931;SDS011;8065;49.520;11.284;2022-11-20T06:05:07;30.30;;;17.67;;
15931;SDS011;8065;49.520;11.284;2022-11-20T06:07:35;31.90;;;18.73;;
15931;SDS011;8065;49.520;11.284;2022-11-20T06:10:01;32.60;;;18.63;;
15931;SDS011;8065;49.520;11.284;2022-11-20T06:12:30;35.23;;;20.43;;
15931;SDS011;8065;49.520;11.284;2022-11-20T06:14:57;33.53;;;18.67;;
15931;SDS011;8065;49.520;11.284;2022-11-20T06:17:23;33.33;;;18.70;;
15931;SDS011;8065;49.520;11.284;2022-11-20T06:19:50;33.23;;;19.13;;
15931;SDS011;8065;49.520;11.284;2022-11-20T06:22:16;28.57;;;17.93;;
15931;SDS011;8065;49.520;11.284;2022-11-20T06:24:44;28.47;;;17.47;;
15931;SDS011;8065;49.520;11.284;2022-11-20T06:27:10;29.33;;;17.90;;
15931;SDS011;8065;49.520;11.284;2022-11-20T06:29:37;31.90;;;18.03;;
15931;SDS011;8065;49.520;11.284;2022-11-20T06:32:03;29.23;;;17.57;;
15931;SDS011;8065;49.520;11.284;2022-11-20T06:34:30;37.17;;;20.33;;
15931;SDS011;8065;49.520;11.284;2022-11-20T06:36:56;29.43;;;18.40;;
15931;SDS011;8065;49.520;11.284;2022-11-20T06:39:23;31.77;;;19.00;;
15931;SDS011;8065;49.520;11.284;2022-11-20T06:41:50;33.23;;;19.70;;
15931;SDS011;8065;49.520;11.284;2022-11-20T06:44:17;31.47;;;18.37;;
15931;SDS011;8065;49.520;11.284;2022-11-20T06:46:43;32.80;;;18.30;;
15931;SDS011;8065;49.520;11.284;2022-11-20T06:49:10;31.90;;;18.67;;
15931;SDS011;8065;49.520;11.284;2022-11-20T06:51:36;27.13;;;17.47;;
15931;SDS011;8065;49.520;11.284;2022-11-20T06:54:03;30.20;;;17.47;;
15931;SDS011;8065;49.520;11.284;2022-11-20T06:56:30;30.57;;;17.63;;
15931;SDS011;8065;49.520;11.284;2022-11-20T06:58:57;33.10;;;18.80;;
15931;SDS011;8065;49.520;11.284;2022-11-20T07:01:24;28.60;;;17.27;;
15931;SDS011;8065;49.520;11.284;2022-11-20T07:03:50;30.00;;;17.60;;
15931;SDS011;8065;49.520;11.284;2022-11-20T07:06:17;28.93;;;16.03;;
15931;SDS011;8065;49.520;11.284;2022-11-20T07:08:43;29.23;;;17.53;;
15931;SDS011;8065;49.520;11.284;2022-11-20T07:11:11;28.87;;;17.37;;
15931;SDS011;8065;49.520;11.284;2022-11-20T07:13:38;27.17;;;17.40;;
15931;SDS011;8065;49.520;11.284;2022-11-20T07:16:06;28.63;;;17.67;;
15931;SDS011;8065;49.520;11.284;2022-11-20T07:18:34;25.93;;;15.97;;
15931;SDS011;8065;49.520;11.284;2022-11-20T07:21:00;27.67;;;16.40;;
15931;SDS011;8065;49.520;11.284;2022-11-20T07:23:27;26.73;;;16.27;;
15931;SDS011;8065;49.520;11.284;2022-11-20T07:25:53;27.13;;;17.00;;
15931;SDS011;8065;49.520;11.284;2022-11-20T07:28:20;26.30;;;15.73;;
15931;SDS011;8065;49.520;11.284;2022-11-20T07:30:49;31.23;;;18.23;;
15931;SDS011;8065;49.520;11.284;2022-11-20T07:33:17;27.20;;;17.40;;
15931;SDS011;8065;49.520;11.284;2022-11-20T07:35:43;28.50;;;17.63;;
15931;SDS011;8065;49.520;11.284;2022-11-20T07:38:10;28.97;;;17.63;;
15931;SDS011;8065;49.520;11.284;2022-11-20T07:40:36;29.83;;;18.20;;
15931;SDS011;8065;49.520;11.284;2022-11-20T07:43:03;32.33;;;20.63;;
15931;SDS011;8065;49.520;11.284;2022-11-20T07:45:29;29.07;;;18.53;;
15931;SDS011;8065;49.520;11.284;2022-11-20T07:47:56;31.53;;;19.37;;
15931;SDS011;8065;49.520;11.284;2022-11-20T07:50:23;30.50;;;18.83;;
15931;SDS011;8065;49.520;11.284;2022-11-20T07:52:50;31.93;;;18.33;;
15931;SDS011;8065;49.520;11.284;2022-11-20T07:55:17;34.70;;;20.60;;
15931;SDS011;8065;49.520;11.284;2022-11-20T07:57:43;32.13;;;19.87;;
15931;SDS011;8065;49.520;11.284;2022-11-20T08:00:10;31.57;;;18.70;;
15931;SDS011;8065;49.520;11.284;2022-11-20T08:02:38;29.70;;;19.00;;
15931;SDS011;8065;49.520;11.284;2022-11-20T08:05:05;30.87;;;20.13;;
15931;SDS011;8065;49.520;11.284;2022-11-20T08:07:36;31.27;;;19.47;;
15931;SDS011;8065;49.520;11.284;2022-11-20T08:10:03;30.97;;;19.10;;
15931;SDS011;8065;49.520;11.284;2022-11-20T08:12:30;30.67;;;18.40;;
15931;SDS011;8065;49.520;11.284;2022-11-20T08:15:14;30.63;;;19.60;;
15931;SDS011;8065;49.520;11.284;2022-11-20T08:17:41;28.10;;;18.10;;
15931;SDS011;8065;49.520;11.284;2022-11-20T08:20:07;31.07;;;18.43;;
15931;SDS011;8065;49.520;11.284;2022-11-20T08:22:36;29.77;;;18.23;;
15931;SDS011;8065;49.520;11.284;2022-11-20T08:25:02;30.13;;;17.80;;
15931;SDS011;8065;49.520;11.284;2022-11-20T08:27:31;27.43;;;18.13;;
15931;SDS011;8065;49.520;11.284;2022-11-20T08:29:57;26.97;;;17.93;;
15931;SDS011;8065;49.520;11.284;2022-11-20T08:32:24;28.87;;;17.63;;
15931;SDS011;8065;49.520;11.284;2022-11-20T08:34:50;31.77;;;18.37;;
15931;SDS011;8065;49.520;11.284;2022-11-20T08:37:17;31.50;;;18.53;;
15931;SDS011;8065;49.520;11.284;2022-11-20T08:39:45;29.97;;;18.07;;
15931;SDS011;8065;49.520;11.284;2022-11-20T08:42:11;28.70;;;18.00;;
15931;SDS011;8065;49.520;11.284;2022-11-20T08:44:38;28.83;;;17.77;;
15931;SDS011;8065;49.520;11.284;2022-11-20T08:47:04;28.60;;;17.73;;
15931;SDS011;8065;49.520;11.284;2022-11-20T08:49:31;28.63;;;17.80;;
15931;SDS011;8065;49.520;11.284;2022-11-20T08:51:57;29.23;;;17.27;;
15931;SDS011;8065;49.520;11.284;2022-11-20T08:54:24;29.77;;;18.43;;
15931;SDS011;8065;49.520;11.284;2022-11-20T08:56:51;29.10;;;18.03;;
15931;SDS011;8065;49.520;11.284;2022-11-20T08:59:18;29.90;;;18.07;;
15931;SDS011;8065;49.520;11.284;2022-11-20T09:01:44;30.13;;;19.80;;
15931;SDS011;8065;49.520;11.284;2022-11-20T09:04:11;31.10;;;20.30;;
15931;SDS011;8065;49.520;11.284;2022-11-20T09:06:39;35.77;;;21.13;;
15931;SDS011;8065;49.520;11.284;2022-11-20T09:09:05;35.07;;;20.80;;
15931;SDS011;8065;49.520;11.284;2022-11-20T09:11:32;35.73;;;21.17;;
15931;SDS011;8065;49.520;11.284;2022-11-20T09:14:00;32.27;;;20.37;;
15931;SDS011;8065;49.520;11.284;2022-11-20T09:16:27;35.67;;;22.60;;
15931;SDS011;8065;49.520;11.284;2022-11-20T09:18:54;35.07;;;22.13;;
15931;SDS011;8065;49.520;11.284;2022-11-20T09:21:20;36.77;;;23.83;;
15931;SDS011;8065;49.520;11.284;2022-11-20T09:23:47;38.43;;;24.10;;
15931;SDS011;8065;49.520;11.284;2022-11-20T09:26:14;36.80;;;20.63;;
15931;SDS011;8065;49.520;11.284;2022-11-20T09:28:40;35.43;;;20.57;;
15931;SDS011;8065;49.520;11.284;2022-11-20T09:31:09;36.67;;;22.43;;
15931;SDS011;8065;49.520;11.284;2022-11-20T09:33:48;33.57;;;20.47;;
15931;SDS011;8065;49.520;11.284;2022-11-20T09:36:14;31.63;;;19.97;;
15931;SDS011;8065;49.520;11.284;2022-11-20T09:38:41;28.60;;;18.30;;
15931;SDS011;8065;49.520;11.284;2022-11-20T09:41:13;29.53;;;18.67;;
15931;SDS011;8065;49.520;11.284;2022-11-20T09:43:58;27.93;;;18.03;;
15931;SDS011;8065;49.520;11.284;2022-11-20T09:46:33;25.87;;;16.87;;
15931;SDS011;8065;49.520;11.284;2022-11-20T09:49:13;24.53;;;16.53;;
15931;SDS011;8065;49.520;11.284;2022-11-20T09:51:51;27.80;;;16.10;;
15931;SDS011;8065;49.520;11.284;2022-11-20T09:54:25;26.07;;;15.73;;
15931;SDS011;8065;49.520;11.284;2022-11-20T09:56:56;23.10;;;14.87;;
15931;SDS011;8065;49.520;11.284;2022-11-20T09:59:28;22.63;;;15.67;;
15931;SDS011;8065;49.520;11.284;2022-11-20T10:02:01;21.83;;;14.00;;
15931;SDS011;8065;49.520;11.284;2022-11-20T10:04:32;21.63;;;13.97;;
15931;SDS011;8065;49.520;11.284;2022-11-20T10:07:03;23.20;;;15.67;;
15931;SDS011;8065;49.520;11.284;2022-11-20T10:09:35;23.23;;;14.73;;
15931;SDS011;8065;49.520;11.284;2022-11-20T10:12:12;25.47;;;14.63;;
15931;SDS011;8065;49.520;11.284;2022-11-20T10:14:47;21.67;;;14.53;;
15931;SDS011;8065;49.520;11.284;2022-11-20T10:17:26;17.73;;;12.20;;
15931;SDS011;8065;49.520;11.284;2022-11-20T10:20:14;20.27;;;12.60;;
15931;SDS011;8065;49.520;11.284;2022-11-20T10:22:49;20.23;;;12.70;;
15931;SDS011;8065;49.520;11.284;2022-11-20T10:25:30;19.87;;;12.83;;
15931;SDS011;8065;49.520;11.284;2022-11-20T10:28:10;19.70;;;12.83;;
15931;SDS011;8065;49.520;11.284;2022-11-20T10:30:48;18.67;;;12.43;;
15931;SDS011;8065;49.520;11.284;2022-11-20T10:33:24;21.50;;;12.87;;
15931;SDS011;8065;49.520;11.284;2022-11-20T10:35:55;18.40;;;12.30;;
15931;SDS011;8065;49.520;11.284;2022-11-20T10:38:29;18.10;;;12.40;;
15931;SDS011;8065;49.520;11.284;2022-11-20T10:41:01;20.03;;;12.87;;
15931;SDS011;8065;49.520;11.284;2022-11-20T10:43:42;20.97;;;13.60;;
15931;SDS011;8065;49.520;11.284;2022-11-20T10:46:12;24.37;;;15.33;;
15931;SDS011;8065;49.520;11.284;2022-11-20T10:48:44;23.27;;;14.03;;
15931;SDS011;8065;49.520;11.284;2022-11-20T10:51:13;19.30;;;12.23;;
15931;SDS011;8065;49.520;11.284;2022-11-20T10:53:51;18.30;;;12.37;;
15931;SDS011;8065;49.520;11.284;2022-11-20T10:56:25;20.83;;;13.47;;
15931;SDS011;8065;49.520;11.284;2022-11-20T10:59:02;18.23;;;12.77;;
15931;SDS011;8065;49.520;11.284;2022-11-20T11:01:39;18.43;;;12.60;;
15931;SDS011;8065;49.520;11.284;2022-11-20T11:04:13;19.80;;;14.07;;
15931;SDS011;8065;49.520;11.284;2022-11-20T11:06:53;19.50;;;13.53;;
15931;SDS011;8065;49.520;11.284;2022-11-20T11:09:27;17.70;;;12.73;;
15931;SDS011;8065;49.520;11.284;2022-11-20T11:11:58;19.53;;;13.27;;
15931;SDS011;8065;49.520;11.284;2022-11-20T11:14:25;16.63;;;12.07;;
15931;SDS011;8065;49.520;11.284;2022-11-20T11:16:52;20.40;;;14.33;;
15931;SDS011;8065;49.520;11.284;2022-11-20T11:19:22;20.93;;;14.40;;
15931;SDS011;8065;49.520;11.284;2022-11-20T11:21:49;22.67;;;14.00;;
15931;SDS011;8065;49.520;11.284;2022-11-20T11:24:19;17.83;;;12.73;;
15931;SDS011;8065;49.520;11.284;2022-11-20T11:26:52;19.07;;;13.23;;
15931;SDS011;8065;49.520;11.284;2022-11-20T11:29:23;18.23;;;12.57;;
15931;SDS011;8065;49.520;11.284;2022-11-20T11:32:02;17.07;;;12.40;;
15931;SDS011;8065;49.520;11.284;2022-11-20T11:34:30;16.67;;;11.37;;
15931;SDS011;8065;49.520;11.284;2022-11-20T11:36:57;11.47;;;9.13;;
15931;SDS011;8065;49.520;11.284;2022-11-20T11:39:26;11.83;;;9.33;;
15931;SDS011;8065;49.520;11.284;2022-11-20T11:41:54;12.60;;;8.53;;
15931;SDS011;8065;49.520;11.284;2022-11-20T11:44:21;13.33;;;7.90;;
15931;SDS011;8065;49.520;11.284;2022-11-20T11:47:08;10.13;;;7.20;;
15931;SDS011;8065;49.520;11.284;2022-11-20T11:49:43;9.70;;;7.50;;
15931;SDS011;8065;49.520;11.284;2022-11-20T11:52:10;14.60;;;10.07;;
15931;SDS011;8065;49.520;11.284;2022-11-20T11:54:43;15.20;;;11.20;;
15931;SDS011;8065;49.520;11.284;2022-11-20T11:57:15;25.00;;;18.07;;
15931;SDS011;8065;49.520;11.284;2022-11-20T11:59:54;28.30;;;19.90;;
15931;SDS011;8065;49.520;11.284;2022-11-20T12:02:35;19.60;;;14.37;;
15931;SDS011;8065;49.520;11.284;2022-11-20T12:05:08;14.63;;;10.70;;
15931;SDS011;8065;49.520;11.284;2022-11-20T12:07:44;13.30;;;10.10;;
15931;SDS011;8065;49.520;11.284;2022-11-20T12:10:14;13.50;;;10.00;;
15931;SDS011;8065;49.520;11.284;2022-11-20T12:12:46;15.10;;;10.63;;
15931;SDS011;8065;49.520;11.284;2022-11-20T12:15:22;11.93;;;9.33;;
15931;SDS011;8065;49.520;11.284;2022-11-20T12:17:52;11.47;;;8.80;;
15931;SDS011;8065;49.520;11.284;2022-11-20T12:20:20;10.00;;;7.77;;
15931;SDS011;8065;49.520;11.284;2022-11-20T12:22:51;10.20;;;7.47;;
15931;SDS011;8065;49.520;11.284;2022-11-20T12:25:27;9.37;;;7.07;;
15931;SDS011;8065;49.520;11.284;2022-11-20T12:28:00;10.47;;;7.63;;
15931;SDS011;8065;49.520;11.284;2022-11-20T12:30:38;10.10;;;7.60;;
15931;SDS011;8065;49.520;11.284;2022-11-20T12:33:40;7.43;;;5.90;;
15931;SDS011;8065;49.520;11.284;2022-11-20T12:36:21;9.30;;;7.50;;
15931;SDS011;8065;49.520;11.284;2022-11-20T12:39:05;12.00;;;8.47;;
15931;SDS011;8065;49.520;11.284;2022-11-20T12:41:43;9.43;;;7.23;;
15931;SDS011;8065;49.520;11.284;2022-11-20T12:44:42;11.10;;;8.17;;
15931;SDS011;8065;49.520;11.284;2022-11-20T12:50:41;9.83;;;7.77;;
15931;SDS011;8065;49.520;11.284;2022-11-20T12:53:21;11.23;;;9.03;;
15931;SDS011;8065;49.520;11.284;2022-11-20T12:55:55;11.10;;;9.10;;
15931;SDS011;8065;49.520;11.284;2022-11-20T12:58:31;11.47;;;9.13;;
15931;SDS011;8065;49.520;11.284;2022-11-20T13:01:20;12.27;;;9.87;;
15931;SDS011;8065;49.520;11.284;2022-11-20T13:04:08;12.17;;;9.73;;
15931;SDS011;8065;49.520;11.284;2022-11-20T13:06:44;11.10;;;8.83;;
15931;SDS011;8065;49.520;11.284;2022-11-20T13:09:13;9.37;;;7.27;;
15931;SDS011;8065;49.520;11.284;2022-11-20T13:11:42;10.33;;;7.50;;
15931;SDS011;8065;49.520;11.284;2022-11-20T13:14:13;8.20;;;6.70;;
15931;SDS011;8065;49.520;11.284;2022-11-20T13:16:51;7.70;;;6.47;;
15931;SDS011;8065;49.520;11.284;2022-11-20T13:19:24;9.10;;;6.93;;
15931;SDS011;8065;49.520;11.284;2022-11-20T13:21:51;9.67;;;7.00;;
15931;SDS011;8065;49.520;11.284;2022-11-20T13:24:23;8.77;;;6.63;;
15931;SDS011;8065;49.520;11.284;2022-11-20T13:29:46;11.03;;;7.57;;
15931;SDS011;8065;49.520;11.284;2022-11-20T13:32:25;11.67;;;8.87;;
15931;SDS011;8065;49.520;11.284;2022-11-20T13:34:57;11.33;;;8.93;;
15931;SDS011;8065;49.520;11.284;2022-11-20T13:37:26;11.33;;;8.83;;
15931;SDS011;8065;49.520;11.284;2022-11-20T13:40:05;11.83;;;9.50;;
15931;SDS011;8065;49.520;11.284;2022-11-20T13:42:40;11.67;;;9.40;;
15931;SDS011;8065;49.520;11.284;2022-11-20T13:45:11;10.97;;;8.13;;
15931;SDS011;8065;49.520;11.284;2022-11-20T13:47:48;9.50;;;7.57;;
15931;SDS011;8065;49.520;11.284;2022-11-20T13:50:16;14.40;;;10.00;;
15931;SDS011;8065;49.520;11.284;2022-11-20T13:52:45;14.07;;;11.23;;
15931;SDS011;8065;49.520;11.284;2022-11-20T13:55:21;18.70;;;12.30;;
15931;SDS011;8065;49.520;11.284;2022-11-20T13:58:02;17.23;;;11.87;;
15931;SDS011;8065;49.520;11.284;2022-11-20T14:00:33;19.60;;;13.33;;
15931;SDS011;8065;49.520;11.284;2022-11-20T14:03:13;19.00;;;13.13;;
15931;SDS011;8065;49.520;11.284;2022-11-20T14:05:46;20.17;;;13.43;;
15931;SDS011;8065;49.520;11.284;2022-11-20T14:08:19;16.00;;;11.60;;
15931;SDS011;8065;49.520;11.284;2022-11-20T14:11:01;13.40;;;10.03;;
15931;SDS011;8065;49.520;11.284;2022-11-20T14:13:28;13.90;;;10.63;;
15931;SDS011;8065;49.520;11.284;2022-11-20T14:15:56;12.50;;;9.53;;
15931;SDS011;8065;49.520;11.284;2022-11-20T14:18:25;11.57;;;9.40;;
15931;SDS011;8065;49.520;11.284;2022-11-20T14:20:52;9.97;;;7.57;;
15931;SDS011;8065;49.520;11.284;2022-11-20T14:23:23;8.63;;;6.80;;
15931;SDS011;8065;49.520;11.284;2022-11-20T14:25:52;8.17;;;6.70;;
15931;SDS011;8065;49.520;11.284;2022-11-20T14:28:20;8.53;;;6.57;;
15931;SDS011;8065;49.520;11.284;2022-11-20T14:30:51;10.43;;;7.27;;
15931;SDS011;8065;49.520;11.284;2022-11-20T14:33:18;9.40;;;7.40;;
15931;SDS011;8065;49.520;11.284;2022-11-20T14:35:50;8.97;;;6.83;;
15931;SDS011;8065;49.520;11.284;2022-11-20T14:38:20;11.07;;;8.20;;
15931;SDS011;8065;49.520;11.284;2022-11-20T14:40:49;8.90;;;7.10;;
15931;SDS011;8065;49.520;11.284;2022-11-20T14:43:18;10.27;;;7.00;;
15931;SDS011;8065;49.520;11.284;2022-11-20T14:45:48;9.67;;;7.97;;